createdAt,value
2022-09-13T00:02:19.878Z,4.50
2022-09-13T00:04:46.998Z,6.47
2022-09-13T00:07:14.081Z,5.80
2022-09-13T00:09:41.020Z,9.40
2022-09-13T00:12:08.104Z,5.90
2022-09-13T00:14:35.070Z,6.70
2022-09-13T00:17:02.051Z,5.18
2022-09-13T00:19:28.966Z,3.78
2022-09-13T00:21:55.951Z,7.25
2022-09-13T00:24:23.158Z,5.97
2022-09-13T00:26:50.108Z,6.78
2022-09-13T00:29:17.100Z,8.95
2022-09-13T00:31:44.027Z,5.88
2022-09-13T00:34:11.829Z,7.18
2022-09-13T00:36:39.223Z,6.40
2022-09-13T00:39:06.241Z,6.88
2022-09-13T00:41:33.587Z,7.65
2022-09-13T00:44:03.411Z,7.07
2022-09-13T00:46:47.628Z,6.90
2022-09-13T00:49:38.267Z,7.57
2022-09-13T00:52:14.303Z,5.90
2022-09-13T00:54:45.572Z,6.47
2022-09-13T00:57:14.830Z,5.50
2022-09-13T00:59:46.077Z,5.57
2022-09-13T01:02:13.619Z,5.20
2022-09-13T01:04:41.766Z,6.50
2022-09-13T01:07:11.533Z,8.13
2022-09-13T01:09:44.825Z,5.95
2022-09-13T01:12:31.639Z,6.50
2022-09-13T01:15:00.802Z,5.90
2022-09-13T01:17:30.321Z,6.13
2022-09-13T01:19:57.970Z,8.05
2022-09-13T01:22:24.848Z,5.75
2022-09-13T01:25:14.650Z,4.68
2022-09-13T01:27:47.178Z,5.80
2022-09-13T01:30:18.051Z,8.40
2022-09-13T01:33:23.096Z,7.77
2022-09-13T01:36:15.800Z,6.10
2022-09-13T01:38:45.612Z,6.75
2022-09-13T01:41:45.568Z,6.65
2022-09-13T01:44:34.106Z,6.03
2022-09-13T01:47:24.884Z,7.18
2022-09-13T01:50:19.070Z,6.65
2022-09-13T01:53:10.965Z,7.70
2022-09-13T01:56:03.391Z,8.10
2022-09-13T01:59:22.167Z,5.50
2022-09-13T02:02:05.252Z,5.30
2022-09-13T02:04:40.980Z,5.63
2022-09-13T02:07:26.453Z,5.47
2022-09-13T02:10:02.426Z,9.70
2022-09-13T02:12:33.778Z,7.75
2022-09-13T02:15:34.321Z,8.25
2022-09-13T02:18:03.124Z,6.00
2022-09-13T02:20:35.728Z,5.63
2022-09-13T02:23:09.763Z,4.63
2022-09-13T02:25:38.438Z,5.43
2022-09-13T02:28:10.813Z,5.70
2022-09-13T02:30:41.803Z,5.28
2022-09-13T02:33:14.263Z,5.05
2022-09-13T02:35:54.005Z,5.05
2022-09-13T02:38:26.365Z,4.25
2022-09-13T02:41:02.014Z,8.80
2022-09-13T02:43:38.125Z,7.95
2022-09-13T02:46:21.131Z,7.97
2022-09-13T02:49:23.576Z,6.50
2022-09-13T02:52:32.823Z,7.32
2022-09-13T02:55:21.348Z,5.90
2022-09-13T02:57:59.950Z,6.97
2022-09-13T03:00:28.168Z,7.35
2022-09-13T03:02:58.381Z,6.35
2022-09-13T03:05:25.706Z,9.45
2022-09-13T03:07:53.770Z,7.28
2022-09-13T03:10:23.198Z,8.75
2022-09-13T03:13:08.896Z,6.70
2022-09-13T03:16:04.650Z,8.10
2022-09-13T03:18:44.687Z,9.85
2022-09-13T03:21:37.540Z,7.95
2022-09-13T03:24:31.985Z,7.60
2022-09-13T03:27:08.986Z,10.48
2022-09-13T03:30:05.495Z,6.22
2022-09-13T03:32:36.020Z,7.30
2022-09-13T03:35:06.730Z,7.50
2022-09-13T03:37:46.642Z,8.93
2022-09-13T03:40:25.910Z,5.35
2022-09-13T03:43:07.938Z,8.32
2022-09-13T03:45:40.114Z,8.45
2022-09-13T03:48:09.513Z,8.13
2022-09-13T03:50:37.635Z,6.72
2022-09-13T03:53:10.085Z,10.68
2022-09-13T03:55:42.231Z,6.28
2022-09-13T03:58:13.931Z,15.02
2022-09-13T04:03:10.112Z,11.88
2022-09-13T04:05:37.273Z,7.35
2022-09-13T04:08:05.876Z,8.73
2022-09-13T04:10:34.440Z,7.13
2022-09-13T04:13:02.914Z,7.75
2022-09-13T04:15:33.643Z,9.82
2022-09-13T04:18:01.171Z,7.60
2022-09-13T04:20:29.737Z,8.90
2022-09-13T04:22:58.545Z,6.22
2022-09-13T04:25:25.552Z,5.05
2022-09-13T04:27:55.979Z,7.03
2022-09-13T04:30:23.416Z,8.38
2022-09-13T04:32:50.580Z,6.30
2022-09-13T04:35:18.100Z,6.47
2022-09-13T04:37:45.188Z,8.90
2022-09-13T04:40:14.556Z,15.30
2022-09-13T04:42:43.765Z,12.35
2022-09-13T04:45:15.763Z,8.70
2022-09-13T04:47:42.722Z,11.60
2022-09-13T04:50:10.031Z,8.10
2022-09-13T04:52:37.001Z,6.85
2022-09-13T04:55:04.343Z,6.82
2022-09-13T04:57:31.331Z,7.35
2022-09-13T04:59:58.254Z,8.30
2022-09-13T05:02:25.314Z,5.95
2022-09-13T05:04:52.308Z,6.07
2022-09-13T05:07:19.339Z,6.78
2022-09-13T05:09:46.309Z,8.73
2022-09-13T05:12:13.425Z,7.13
2022-09-13T05:14:40.726Z,7.88
2022-09-13T05:17:07.893Z,6.90
2022-09-13T05:19:35.100Z,8.23
2022-09-13T05:22:02.624Z,5.72
2022-09-13T05:24:30.108Z,5.60
2022-09-13T05:26:57.413Z,5.88
2022-09-13T05:29:24.455Z,8.57
2022-09-13T05:31:51.383Z,6.97
2022-09-13T05:34:19.565Z,9.85
2022-09-13T05:36:51.687Z,7.28
2022-09-13T05:39:36.484Z,6.25
2022-09-13T05:42:09.248Z,12.50
2022-09-13T05:44:36.588Z,9.07
2022-09-13T05:47:03.687Z,7.90
2022-09-13T05:49:31.089Z,8.43
2022-09-13T05:51:58.138Z,9.52
2022-09-13T05:54:25.038Z,8.18
2022-09-13T05:56:54.254Z,9.02
2022-09-13T05:59:21.237Z,9.80
2022-09-13T06:01:48.663Z,7.07
2022-09-13T06:04:15.690Z,6.00
2022-09-13T06:06:43.140Z,7.10
2022-09-13T06:09:13.900Z,8.60
2022-09-13T06:11:41.175Z,10.57
2022-09-13T06:14:08.418Z,10.30
2022-09-13T06:16:35.420Z,9.15
2022-09-13T06:19:02.843Z,7.43
2022-09-13T06:21:29.758Z,7.50
2022-09-13T06:23:58.128Z,7.25
2022-09-13T06:26:27.778Z,8.50
2022-09-13T06:28:57.057Z,8.57
2022-09-13T06:31:27.417Z,8.05
2022-09-13T06:34:03.326Z,6.72
2022-09-13T06:36:31.228Z,9.02
2022-09-13T06:39:00.636Z,6.40
2022-09-13T06:41:28.312Z,7.10
2022-09-13T06:43:58.551Z,7.45
2022-09-13T06:46:30.915Z,9.30
2022-09-13T06:49:06.922Z,8.35
2022-09-13T06:51:35.159Z,9.68
2022-09-13T06:54:04.020Z,7.95
2022-09-13T06:56:34.479Z,9.90
2022-09-13T06:59:09.679Z,8.48
2022-09-13T07:01:43.835Z,11.13
2022-09-13T07:04:13.392Z,9.20
2022-09-13T07:06:45.718Z,9.90
2022-09-13T07:09:17.316Z,9.48
2022-09-13T07:11:48.055Z,8.57
2022-09-13T07:14:21.345Z,12.82
2022-09-13T07:16:48.835Z,7.85
2022-09-13T07:19:22.982Z,10.00
2022-09-13T07:21:50.894Z,10.75
2022-09-13T07:24:18.464Z,9.95
2022-09-13T07:26:46.784Z,9.73
2022-09-13T07:29:16.363Z,9.88
2022-09-13T07:31:45.414Z,10.73
2022-09-13T07:34:15.742Z,10.05
2022-09-13T07:36:42.913Z,12.80
2022-09-13T07:39:14.371Z,10.68
2022-09-13T07:41:43.186Z,12.85
2022-09-13T07:44:16.167Z,12.70
2022-09-13T07:46:46.985Z,11.13
2022-09-13T07:49:16.760Z,12.50
2022-09-13T07:51:44.768Z,10.85
2022-09-13T07:54:14.369Z,15.32
2022-09-13T07:56:42.318Z,10.85
2022-09-13T07:59:14.702Z,10.82
2022-09-13T08:01:52.138Z,10.98
2022-09-13T08:04:24.098Z,11.20
2022-09-13T08:09:18.582Z,10.05
2022-09-13T08:11:52.812Z,9.15
2022-09-13T08:14:21.604Z,10.10
2022-09-13T08:16:48.620Z,8.90
2022-09-13T08:19:17.657Z,11.73
2022-09-13T08:21:45.499Z,8.70
2022-09-13T08:24:22.048Z,9.45
2022-09-13T08:26:49.606Z,9.98
2022-09-13T08:29:17.573Z,10.75
2022-09-13T08:31:45.095Z,8.02
2022-09-13T08:34:14.770Z,7.90
2022-09-13T08:36:42.549Z,8.32
2022-09-13T08:39:12.780Z,10.90
2022-09-13T08:42:01.432Z,6.95
2022-09-13T08:44:30.128Z,7.90
2022-09-13T08:47:15.759Z,9.45
2022-09-13T08:49:49.473Z,6.35
2022-09-13T08:52:35.717Z,8.32
2022-09-13T08:55:27.523Z,7.45
2022-09-13T08:58:17.706Z,6.20
2022-09-13T09:00:54.886Z,9.10
2022-09-13T09:03:30.837Z,5.28
2022-09-13T09:06:00.362Z,4.38
2022-09-13T09:08:39.369Z,5.82
2022-09-13T09:11:22.984Z,6.68
2022-09-13T09:14:20.761Z,6.80
2022-09-13T09:16:55.539Z,5.20
2022-09-13T09:20:03.618Z,3.63
2022-09-13T09:22:36.084Z,3.95
2022-09-13T09:25:04.357Z,2.85
2022-09-13T09:27:32.211Z,4.28
2022-09-13T09:30:02.046Z,6.60
2022-09-13T09:33:10.725Z,4.45
2022-09-13T09:35:49.884Z,3.55
2022-09-13T09:38:33.567Z,2.80
2022-09-13T09:41:06.956Z,3.05
2022-09-13T09:44:02.946Z,2.55
2022-09-13T09:46:36.472Z,2.72
2022-09-13T09:49:34.935Z,1.30
2022-09-13T09:52:08.884Z,3.60
2022-09-13T09:54:39.066Z,3.00
2022-09-13T09:57:09.588Z,1.58
2022-09-13T09:59:37.182Z,2.03
2022-09-13T10:02:17.576Z,2.95
2022-09-13T10:04:55.820Z,2.35
2022-09-13T10:07:33.426Z,1.85
2022-09-13T10:10:20.530Z,1.40
2022-09-13T10:12:51.943Z,3.10
2022-09-13T10:15:22.431Z,1.13
2022-09-13T10:18:16.806Z,1.27
2022-09-13T10:21:18.139Z,1.85
2022-09-13T10:23:50.522Z,3.25
2022-09-13T10:26:26.646Z,1.67
2022-09-13T10:29:07.163Z,2.60
2022-09-13T10:31:40.164Z,2.05
2022-09-13T10:34:36.686Z,1.73
2022-09-13T10:37:13.470Z,2.42
2022-09-13T10:40:09.772Z,1.45
2022-09-13T10:42:37.580Z,1.67
2022-09-13T10:45:08.974Z,1.40
2022-09-13T10:47:48.530Z,2.17
2022-09-13T10:50:21.782Z,1.50
2022-09-13T10:52:52.480Z,1.83
2022-09-13T10:55:19.434Z,1.73
2022-09-13T10:58:13.675Z,1.52
2022-09-13T11:01:08.462Z,1.67
2022-09-13T11:03:59.832Z,1.20
2022-09-13T11:06:43.543Z,4.93
2022-09-13T11:09:30.866Z,4.03
2022-09-13T11:12:39.064Z,3.42
2022-09-13T11:15:32.924Z,2.83
2022-09-13T11:18:30.937Z,2.33
2022-09-13T11:21:25.679Z,4.50
2022-09-13T11:24:17.394Z,3.53
2022-09-13T11:27:19.776Z,7.20
2022-09-13T11:30:18.586Z,3.58
2022-09-13T11:33:13.661Z,4.32
2022-09-13T11:35:53.134Z,5.15
2022-09-13T11:38:34.904Z,3.28
2022-09-13T11:41:33.133Z,4.10
2022-09-13T11:44:21.180Z,3.60
2022-09-13T11:47:37.549Z,2.25
2022-09-13T11:50:54.614Z,4.10
2022-09-13T11:53:50.726Z,5.30
2022-09-13T11:56:23.049Z,4.22
2022-09-13T11:59:12.419Z,2.67
2022-09-13T12:01:50.721Z,1.42
2022-09-13T12:04:25.525Z,3.45
2022-09-13T12:07:29.684Z,3.72
2022-09-13T12:10:03.836Z,4.18
2022-09-13T12:12:35.335Z,5.75
2022-09-13T12:15:19.796Z,2.83
2022-09-13T12:18:15.855Z,2.33
2022-09-13T12:20:48.947Z,1.77
2022-09-13T12:23:43.719Z,2.22
2022-09-13T12:26:27.095Z,1.40
2022-09-13T12:29:19.298Z,1.42
2022-09-13T12:31:46.587Z,2.97
2022-09-13T12:34:24.446Z,2.58
2022-09-13T12:37:24.128Z,2.95
2022-09-13T12:40:12.958Z,1.15
2022-09-13T12:42:56.218Z,2.80
2022-09-13T12:45:38.377Z,2.25
2022-09-13T12:48:27.071Z,1.95
2022-09-13T12:51:15.904Z,1.42
2022-09-13T12:54:15.514Z,3.67
2022-09-13T12:56:56.347Z,2.03
2022-09-13T12:59:35.700Z,2.75
2022-09-13T13:02:33.064Z,3.83
2022-09-13T13:05:15.764Z,3.10
2022-09-13T13:07:46.490Z,2.70
2022-09-13T13:10:35.873Z,2.85
2022-09-13T13:13:25.328Z,1.85
2022-09-13T13:15:52.275Z,1.55
2022-09-13T13:18:31.525Z,1.20
2022-09-13T13:20:58.708Z,2.83
2022-09-13T13:23:31.844Z,1.00
2022-09-13T13:26:05.744Z,1.50
2022-09-13T13:28:45.141Z,1.90
2022-09-13T13:31:24.542Z,1.08
2022-09-13T13:34:35.731Z,2.25
2022-09-13T13:37:09.859Z,4.18
2022-09-13T13:39:43.082Z,1.02
2022-09-13T13:42:33.661Z,2.35
2022-09-13T13:45:03.243Z,3.15
2022-09-13T13:47:30.292Z,1.30
2022-09-13T13:50:19.646Z,1.83
2022-09-13T13:52:55.526Z,0.50
2022-09-13T13:55:49.339Z,2.78
2022-09-13T13:58:31.460Z,3.22
2022-09-13T14:01:02.439Z,1.42
2022-09-13T14:04:09.714Z,0.55
2022-09-13T14:07:19.425Z,2.58
2022-09-13T14:10:06.637Z,0.70
2022-09-13T14:12:50.345Z,1.92
2022-09-13T14:15:23.146Z,2.13
2022-09-13T14:18:13.757Z,4.55
2022-09-13T14:21:00.551Z,0.93
2022-09-13T14:23:30.443Z,4.32
2022-09-13T14:26:17.149Z,2.22
2022-09-13T14:28:44.444Z,2.08
2022-09-13T14:31:21.536Z,2.55
2022-09-13T14:33:48.989Z,0.55
2022-09-13T14:36:22.949Z,0.50
2022-09-13T14:38:55.486Z,2.83
2022-09-13T14:41:31.286Z,0.65
2022-09-13T14:44:28.459Z,0.75
2022-09-13T14:47:21.236Z,0.90
2022-09-13T14:49:54.110Z,0.35
2022-09-13T14:52:28.749Z,2.15
2022-09-13T14:54:59.752Z,1.38
2022-09-13T14:57:41.813Z,2.17
2022-09-13T15:00:20.963Z,1.55
2022-09-13T15:03:05.315Z,3.83
2022-09-13T15:05:34.332Z,0.93
2022-09-13T15:08:25.448Z,0.60
2022-09-13T15:10:52.599Z,1.13
2022-09-13T15:13:19.606Z,0.40
2022-09-13T15:15:46.750Z,2.25
2022-09-13T15:18:20.189Z,3.00
2022-09-13T15:20:51.087Z,4.38
2022-09-13T15:23:23.829Z,1.77
2022-09-13T15:25:55.154Z,0.85
2022-09-13T15:28:25.884Z,1.98
2022-09-13T15:30:54.187Z,3.20
2022-09-13T15:33:28.713Z,2.88
2022-09-13T15:36:20.739Z,3.70
2022-09-13T15:39:09.375Z,0.60
2022-09-13T15:41:41.568Z,2.70
2022-09-13T15:44:09.991Z,1.50
2022-09-13T15:47:09.594Z,2.30
2022-09-13T15:49:40.140Z,3.28
2022-09-13T15:52:07.802Z,1.83
2022-09-13T15:54:41.340Z,1.33
2022-09-13T15:57:21.239Z,1.35
2022-09-13T15:59:48.428Z,0.70
2022-09-13T16:02:25.682Z,3.75
2022-09-13T16:04:53.788Z,1.55
2022-09-13T16:07:21.323Z,2.90
2022-09-13T16:09:48.457Z,2.50
2022-09-13T16:12:16.147Z,1.92
2022-09-13T16:14:43.290Z,3.10
2022-09-13T16:17:20.963Z,3.47
2022-09-13T16:19:48.180Z,2.75
2022-09-13T16:22:15.574Z,3.40
2022-09-13T16:24:42.889Z,5.18
2022-09-13T16:27:14.326Z,3.05
2022-09-13T16:29:41.923Z,3.35
2022-09-13T16:32:09.161Z,1.50
2022-09-13T16:34:36.175Z,2.25
2022-09-13T16:37:03.602Z,1.92
2022-09-13T16:39:30.787Z,1.27
2022-09-13T16:41:57.700Z,2.55
2022-09-13T16:44:24.727Z,1.38
2022-09-13T16:46:51.680Z,2.78
2022-09-13T16:49:18.613Z,1.92
2022-09-13T16:51:45.780Z,1.00
2022-09-13T16:54:15.497Z,1.77
2022-09-13T16:56:43.459Z,1.90
2022-09-13T16:59:10.422Z,1.85
2022-09-13T17:01:37.613Z,1.55
2022-09-13T17:04:05.963Z,2.42
2022-09-13T17:06:33.099Z,1.30
2022-09-13T17:09:02.404Z,1.40
2022-09-13T17:11:34.826Z,0.75
2022-09-13T17:14:04.713Z,3.42
2022-09-13T17:16:43.953Z,3.58
2022-09-13T17:19:15.488Z,0.70
2022-09-13T17:21:44.260Z,3.72
2022-09-13T17:24:13.723Z,0.65
2022-09-13T17:26:42.200Z,2.95
2022-09-13T17:29:11.319Z,1.10
2022-09-13T17:31:40.915Z,2.00
2022-09-13T17:34:08.294Z,1.60
2022-09-13T17:36:35.268Z,2.67
2022-09-13T17:39:02.459Z,1.50
2022-09-13T17:41:30.373Z,2.90
2022-09-13T17:43:57.627Z,2.92
2022-09-13T17:46:29.001Z,2.05
2022-09-13T17:48:58.725Z,15.95
2022-09-13T17:51:31.970Z,1.83
2022-09-13T17:54:02.205Z,1.73
2022-09-13T17:56:40.895Z,2.47
2022-09-13T17:59:13.800Z,3.38
2022-09-13T18:01:44.016Z,0.95
2022-09-13T18:04:12.703Z,3.25
2022-09-13T18:06:40.877Z,3.83
2022-09-13T18:09:11.225Z,0.95
2022-09-13T18:11:38.876Z,1.85
2022-09-13T18:14:06.795Z,5.65
2022-09-13T18:16:33.968Z,3.35
2022-09-13T18:19:01.511Z,5.65
2022-09-13T18:21:29.345Z,3.17
2022-09-13T18:23:58.771Z,5.88
2022-09-13T18:26:27.505Z,5.97
2022-09-13T18:28:56.293Z,1.70
2022-09-13T18:31:24.912Z,3.33
2022-09-13T18:34:00.602Z,3.03
2022-09-13T18:36:28.807Z,2.78
2022-09-13T18:38:57.161Z,3.97
2022-09-13T18:41:30.379Z,2.17
2022-09-13T18:43:59.011Z,2.10
2022-09-13T18:46:32.096Z,2.08
2022-09-13T18:49:00.455Z,1.63
2022-09-13T18:51:40.409Z,4.40
2022-09-13T18:54:16.371Z,5.35
2022-09-13T18:56:47.813Z,2.08
2022-09-13T18:59:16.566Z,2.40
2022-09-13T19:01:47.186Z,4.32
2022-09-13T19:04:20.551Z,2.38
2022-09-13T19:06:53.708Z,4.03
2022-09-13T19:09:25.138Z,3.45
2022-09-13T19:11:58.326Z,1.73
2022-09-13T19:14:27.988Z,2.78
2022-09-13T19:16:57.901Z,2.15
2022-09-13T19:19:25.797Z,3.35
2022-09-13T19:22:03.027Z,5.38
2022-09-13T19:24:31.378Z,2.70
2022-09-13T19:27:08.655Z,4.75
2022-09-13T19:29:39.712Z,3.97
2022-09-13T19:32:08.427Z,2.07
2022-09-13T19:34:35.878Z,1.38
2022-09-13T19:37:06.267Z,4.55
2022-09-13T19:39:34.988Z,2.83
2022-09-13T19:42:04.044Z,4.47
2022-09-13T19:44:41.128Z,4.43
2022-09-13T19:48:02.292Z,1.92
2022-09-13T19:50:01.332Z,2.35
2022-09-13T19:52:29.461Z,3.05
2022-09-13T19:54:59.783Z,5.28
2022-09-13T19:57:28.679Z,4.63
2022-09-13T20:00:16.463Z,3.13
2022-09-13T20:02:43.958Z,3.33
2022-09-13T20:05:11.887Z,2.63
2022-09-13T20:07:39.502Z,5.72
2022-09-13T20:10:08.397Z,1.90
2022-09-13T20:12:37.755Z,3.10
2022-09-13T20:15:08.366Z,2.92
2022-09-13T20:17:35.700Z,3.15
2022-09-13T20:20:05.376Z,5.82
2022-09-13T20:22:35.088Z,1.03
2022-09-13T20:25:11.145Z,4.15
2022-09-13T20:27:41.099Z,3.05
2022-09-13T20:30:08.894Z,5.57
2022-09-13T20:32:36.230Z,2.88
2022-09-13T20:35:05.204Z,1.58
2022-09-13T20:37:32.391Z,1.17
2022-09-13T20:40:02.762Z,1.58
2022-09-13T20:42:33.403Z,1.02
2022-09-13T20:45:17.723Z,7.80
2022-09-13T20:47:46.785Z,3.90
2022-09-13T20:50:20.698Z,3.35
2022-09-13T20:52:48.316Z,3.78
2022-09-13T20:55:18.537Z,5.32
2022-09-13T20:57:46.573Z,2.75
2022-09-13T21:00:15.624Z,8.82
2022-09-13T21:02:42.996Z,0.95
2022-09-13T21:05:10.985Z,7.28
2022-09-13T21:07:56.915Z,3.05
2022-09-13T21:10:24.658Z,4.38
2022-09-13T21:12:52.555Z,0.93
2022-09-13T21:15:20.486Z,2.45
2022-09-13T21:17:47.707Z,1.02
2022-09-13T21:20:18.517Z,1.73
2022-09-13T21:22:46.983Z,1.73
2022-09-13T21:25:14.113Z,2.05
2022-09-13T21:27:47.873Z,2.38
2022-09-13T21:30:18.312Z,0.68
2022-09-13T21:32:45.333Z,1.15
2022-09-13T21:35:12.909Z,1.55
2022-09-13T21:37:40.046Z,5.28
2022-09-13T21:40:07.917Z,3.90
2022-09-13T21:42:35.930Z,2.55
2022-09-13T21:45:05.778Z,3.03
2022-09-13T21:47:40.089Z,4.45
2022-09-13T21:50:10.314Z,2.58
2022-09-13T21:52:43.709Z,2.35
2022-09-13T21:55:17.513Z,4.15
2022-09-13T21:57:48.281Z,1.83
2022-09-13T22:00:16.217Z,2.35
2022-09-13T22:02:43.387Z,6.75
2022-09-13T22:05:10.347Z,2.85
2022-09-13T22:07:37.498Z,4.22
2022-09-13T22:10:04.795Z,2.67
2022-09-13T22:12:31.859Z,3.92
2022-09-13T22:14:58.820Z,6.53
2022-09-13T22:17:28.618Z,1.27
2022-09-13T22:19:55.853Z,2.03
2022-09-13T22:22:22.850Z,2.40
2022-09-13T22:24:49.900Z,4.43
2022-09-13T22:27:16.922Z,4.03
2022-09-13T22:29:43.868Z,1.23
2022-09-13T22:32:10.911Z,3.13
2022-09-13T22:34:37.874Z,5.10
2022-09-13T22:37:05.059Z,2.03
2022-09-13T22:39:32.069Z,1.83
2022-09-13T22:41:59.156Z,3.88
2022-09-13T22:44:26.178Z,2.67
2022-09-13T22:46:53.840Z,2.95
2022-09-13T22:49:21.088Z,6.25
2022-09-13T22:51:48.628Z,4.53
2022-09-13T22:54:17.126Z,2.25
2022-09-13T22:56:44.464Z,2.13
2022-09-13T22:59:14.650Z,2.13
2022-09-13T23:01:42.285Z,2.65
2022-09-13T23:04:09.738Z,3.70
2022-09-13T23:06:37.091Z,2.40
2022-09-13T23:09:06.745Z,4.07
2022-09-13T23:11:38.670Z,5.47
2022-09-13T23:14:12.035Z,1.08
2022-09-13T23:16:41.127Z,2.15
2022-09-13T23:19:09.622Z,0.90
2022-09-13T23:21:37.810Z,4.50
2022-09-13T23:24:06.904Z,2.78
2022-09-13T23:26:35.194Z,2.53
2022-09-13T23:29:04.302Z,5.50
2022-09-13T23:31:34.766Z,2.22
2022-09-13T23:34:04.640Z,4.15
2022-09-13T23:36:35.788Z,6.28
2022-09-13T23:39:04.757Z,5.20
2022-09-13T23:41:33.449Z,0.60
2022-09-13T23:44:01.884Z,3.70
2022-09-13T23:46:29.379Z,2.13
2022-09-13T23:48:56.948Z,2.95
2022-09-13T23:51:25.729Z,11.90
2022-09-13T23:53:57.352Z,1.15
2022-09-13T23:58:52.579Z,2.22
